Norway, MI (49870)

06:41 PM CST on Δεκέμβριος 17, 2014 (GMT -0600)
Downtown | Change Station
CLOSE
Current Station
Personal Weather Stations
Location: Norway, MI
Elevation: 942 ft
Nearby Weather Stations

Elev 942 ft 45.79 °N, 87.91 °W | Updated 28 seconds ago

Νεφοσκεπής
Νεφοσκεπής
26.0 ° F
Feels Like 17 ° F
N
9.2
Ανεμος Μεταβλητός Ανεμος from ΒΔ
Gusts 9.2 mph

Σήμερα
High -- | Low -- ° F
--% Chance of Precip.
Yesterday
High -- | Low -- ° F
Precip. -- in
7:27 AM 4:08 PM
Μηνίσκος, 18% visible
Ατμοσφαιρική Πίεση 30.22 in
Ορατότητα 10.0 Μίλια
Σύννεφα Νεφοσκεπής 1400 ft
Δείκτης Ψυχρότητας 17 ° F
Σημείο Δρόσου 22 ° F
Υγρασία 86%
Rainfall 0.00 in
Snow Depth Not available.
Υπεριώδης ακτινοβολία (UV) 0 out of 12
Pollen .10 out of 12
Air Quality Not available.
Flu Activity Not available.
METAR KIMT 172354Z AUTO 33011KT 10SM OVC014 M04/M07 A3015 RMK AO2 UPB09E31 SLP233 P0000 60000 T10441072 11033 21044 51019

More Conditions Fewer Conditions

Ατμοσφαιρική Πίεση 30.22 in
Ορατότητα 10.0 Μίλια
Σύννεφα Νεφοσκεπής 1400 ft
Δείκτης Ψυχρότητας 17 ° F
Σημείο Δρόσου 22 ° F
Υγρασία 86%
Rainfall 0.00 in
Snow Depth Not available.
Υπεριώδης ακτινοβολία (UV) 0 out of 12
Pollen .10 out of 12
Air Quality Not available.
Flu Activity Not available.
METAR KIMT 172354Z AUTO 33011KT 10SM OVC014 M04/M07 A3015 RMK AO2 UPB09E31 SLP233 P0000 60000 T10441072 11033 21044 51019

More Conditions Fewer Conditions

10-Day Weather Forecast

Almanac

Αστρονομία

Dec. 17, 2014 Rise Set
Actual Time
Civil Twilight
Nautical Twilight
Astronomical Twilight
Moon
Length Of Visible Light
Διάρκεια ημέρας
Tomorrow will be .
, % of the Moon is Illuminated

Today's Extremes

State Highs State Lows

Community

WunderPhotos

Upload Photos

1,778,837 photos uploaded!

WunderBlogs® & News

Nearby

Air Quality

  Air Quality AQ Index Pollutant
Not available.

Snow Depth

Station Depth Elevation

Earthquake Activity

City Distance Mag. Time & Date
Minimum magnitude displayed is 2.5.

Coastal Water Temperatures

Τοποθεσία Θερμοκρασία

Nearby Weather Stations